createdAt,value
2022-10-26T00:01:57.869Z,100345.16
2022-10-26T00:06:59.404Z,100346.88
2022-10-26T00:12:00.892Z,100340.97
2022-10-26T00:17:02.310Z,100351.28
2022-10-26T00:22:03.901Z,100350.38
2022-10-26T00:27:05.645Z,100340.03
2022-10-26T00:32:07.159Z,100335.47
2022-10-26T00:37:09.653Z,100337.06
2022-10-26T00:42:22.504Z,100333.53
2022-10-26T00:47:41.916Z,100328.19
2022-10-26T00:52:43.604Z,100328.97
2022-10-26T00:57:45.066Z,100318.53
2022-10-26T01:02:49.338Z,100318.38
2022-10-26T01:07:52.110Z,100314.84
2022-10-26T01:12:56.050Z,100316.66
2022-10-26T01:18:15.940Z,100306.34
2022-10-26T01:23:34.133Z,100282.47
2022-10-26T01:29:02.127Z,100273.84
2022-10-26T01:34:14.189Z,100302.84
2022-10-26T01:39:28.125Z,100277.91
2022-10-26T01:44:39.569Z,100288.84
2022-10-26T01:49:50.334Z,100309.06
2022-10-26T01:54:51.905Z,100291.88
2022-10-26T02:00:12.208Z,100310.56
2022-10-26T02:05:25.374Z,100318.19
2022-10-26T02:10:47.920Z,100325.88
2022-10-26T02:16:17.364Z,100332.00
2022-10-26T02:21:25.794Z,100338.13
2022-10-26T02:26:30.667Z,100353.59
2022-10-26T02:31:33.935Z,100365.91
2022-10-26T02:36:39.188Z,100348.66
2022-10-26T02:41:43.830Z,100363.41
2022-10-26T02:46:45.716Z,100388.16
2022-10-26T02:51:56.264Z,100382.44
2022-10-26T02:57:07.673Z,100376.06
2022-10-26T03:02:09.470Z,100357.38
2022-10-26T03:07:10.987Z,100359.75
2022-10-26T03:12:12.408Z,100367.09
2022-10-26T03:17:13.839Z,100374.66
2022-10-26T03:22:15.448Z,100360.97
2022-10-26T03:27:16.977Z,100370.78
2022-10-26T03:32:18.789Z,100367.53
2022-10-26T03:37:20.201Z,100364.13
2022-10-26T03:42:21.651Z,100363.31
2022-10-26T03:47:23.136Z,100359.00
2022-10-26T03:52:24.780Z,100357.94
2022-10-26T03:57:26.309Z,100356.00
2022-10-26T04:02:27.731Z,100370.44
2022-10-26T04:07:29.223Z,100352.06
2022-10-26T04:12:30.629Z,100338.59
2022-10-26T04:17:32.303Z,100318.78
2022-10-26T04:22:33.727Z,100323.25
2022-10-26T04:27:35.543Z,100286.31
2022-10-26T04:32:37.083Z,100278.00
2022-10-26T04:37:38.511Z,100306.50
2022-10-26T04:42:44.235Z,100327.06
2022-10-26T04:47:45.705Z,100324.25
2022-10-26T04:52:51.532Z,100329.91
2022-10-26T04:57:55.943Z,100319.44
2022-10-26T05:03:05.176Z,100326.75
2022-10-26T05:08:06.882Z,100340.94
2022-10-26T05:13:09.438Z,100346.81
2022-10-26T05:18:10.940Z,100364.13
2022-10-26T05:23:12.464Z,100360.78
2022-10-26T05:28:15.302Z,100375.25
2022-10-26T05:33:16.799Z,100382.78
2022-10-26T05:38:18.329Z,100398.00
2022-10-26T05:43:21.874Z,100415.22
2022-10-26T05:48:23.516Z,100415.16
2022-10-26T05:53:24.906Z,100419.59
2022-10-26T05:58:26.820Z,100420.81
2022-10-26T06:04:03.275Z,100435.72
2022-10-26T06:09:04.927Z,100446.66
2022-10-26T06:14:07.284Z,100444.03
2022-10-26T06:19:22.803Z,100460.84
2022-10-26T06:24:39.848Z,100456.63
2022-10-26T06:29:54.656Z,100453.06
2022-10-26T06:35:25.449Z,100447.53
2022-10-26T06:40:27.271Z,100450.81
2022-10-26T06:45:29.121Z,100454.03
2022-10-26T06:50:44.401Z,100458.22
2022-10-26T06:55:49.731Z,100462.06
2022-10-26T07:00:54.051Z,100475.19
2022-10-26T07:05:55.612Z,100469.41
2022-10-26T07:10:57.127Z,100480.56
2022-10-26T07:15:59.275Z,100495.19
2022-10-26T07:21:00.762Z,100490.97
2022-10-26T07:26:02.227Z,100498.00
2022-10-26T07:31:05.594Z,100493.63
2022-10-26T07:36:08.640Z,100489.41
2022-10-26T07:41:10.131Z,100487.66
2022-10-26T07:46:12.753Z,100500.50
2022-10-26T07:51:14.962Z,100515.44
2022-10-26T07:56:16.446Z,100521.91
2022-10-26T08:01:17.943Z,100535.97
2022-10-26T08:06:20.158Z,100544.41
2022-10-26T08:11:21.976Z,100554.00
2022-10-26T08:16:23.780Z,100568.97
2022-10-26T08:21:36.159Z,100566.53
2022-10-26T08:26:41.840Z,100568.09
2022-10-26T08:31:43.323Z,100561.06
2022-10-26T08:36:46.921Z,100556.41
2022-10-26T08:41:53.465Z,100554.56
2022-10-26T08:47:00.756Z,100574.84
2022-10-26T08:52:03.334Z,100573.94
2022-10-26T08:57:16.189Z,100587.38
2022-10-26T09:02:18.053Z,100589.66
2022-10-26T09:07:40.457Z,100594.72
2022-10-26T09:13:28.369Z,100592.47
2022-10-26T09:18:57.802Z,100584.16
2022-10-26T09:24:08.495Z,100581.53
2022-10-26T09:29:13.560Z,100580.44
2022-10-26T09:34:31.471Z,100595.09
2022-10-26T09:39:42.337Z,100600.31
2022-10-26T09:44:52.433Z,100606.50
2022-10-26T09:49:58.404Z,100615.84
2022-10-26T09:54:59.886Z,100628.47
2022-10-26T10:00:01.335Z,100635.06
2022-10-26T10:05:32.891Z,100634.00
2022-10-26T10:11:07.529Z,100648.88
2022-10-26T10:16:20.293Z,100643.69
2022-10-26T10:21:22.225Z,100655.47
2022-10-26T10:26:25.039Z,100663.53
2022-10-26T10:31:30.016Z,100657.75
2022-10-26T10:36:32.312Z,100660.81
2022-10-26T10:41:36.646Z,100668.97
2022-10-26T10:46:41.009Z,100667.94
2022-10-26T10:51:44.131Z,100678.84
2022-10-26T10:56:54.905Z,100681.81
2022-10-26T11:02:23.371Z,100681.81
2022-10-26T11:07:27.972Z,100688.53
2022-10-26T11:12:38.909Z,100686.66
2022-10-26T11:18:08.141Z,100692.25
2022-10-26T11:23:20.869Z,100685.50
2022-10-26T11:28:33.982Z,100684.34
2022-10-26T11:33:47.376Z,100681.19
2022-10-26T11:39:06.757Z,100685.03
2022-10-26T11:44:34.505Z,100679.00
2022-10-26T11:49:57.733Z,100688.00
2022-10-26T11:55:04.708Z,100679.50
2022-10-26T12:00:25.222Z,100684.78
2022-10-26T12:05:50.238Z,100691.38
2022-10-26T12:11:04.973Z,100689.50
2022-10-26T12:16:32.860Z,100692.81
2022-10-26T12:21:36.614Z,100698.13
2022-10-26T12:26:41.906Z,100694.81
2022-10-26T12:31:44.167Z,100709.81
2022-10-26T12:36:57.670Z,100708.38
2022-10-26T12:42:05.336Z,100708.75
2022-10-26T12:47:08.757Z,100701.91
2022-10-26T12:52:28.509Z,100709.41
2022-10-26T12:57:50.009Z,100714.59
2022-10-26T13:03:13.291Z,100714.94
2022-10-26T13:08:15.694Z,100709.97
2022-10-26T13:13:24.147Z,100712.56
2022-10-26T13:18:27.249Z,100715.66
2022-10-26T13:23:35.954Z,100718.69
2022-10-26T13:28:37.332Z,100714.09
2022-10-26T13:33:43.881Z,100719.28
2022-10-26T13:38:47.254Z,100734.38
2022-10-26T13:43:50.076Z,100733.50
2022-10-26T13:48:53.064Z,100736.53
2022-10-26T13:54:16.797Z,100731.47
2022-10-26T14:04:29.006Z,100746.66
2022-10-26T14:09:31.066Z,100745.09
2022-10-26T14:14:36.364Z,100744.84
2022-10-26T14:19:41.658Z,100751.28
2022-10-26T14:30:21.111Z,100765.31
2022-10-26T14:35:24.652Z,100770.16
2022-10-26T14:40:34.055Z,100764.41
2022-10-26T14:45:53.826Z,100763.88
2022-10-26T14:51:21.201Z,100762.78
2022-10-26T14:56:30.954Z,100768.41
2022-10-26T15:01:36.210Z,100770.59
2022-10-26T15:06:43.750Z,100783.88
2022-10-26T15:11:48.274Z,100782.31
2022-10-26T15:16:59.310Z,100786.78
2022-10-26T15:22:00.842Z,100796.41
2022-10-26T15:27:03.636Z,100794.16
2022-10-26T15:32:18.384Z,100796.31
2022-10-26T15:37:20.167Z,100797.69
2022-10-26T15:42:21.846Z,100801.84
2022-10-26T15:47:30.488Z,100811.31
2022-10-26T15:52:32.371Z,100815.56
2022-10-26T15:57:33.955Z,100816.69
2022-10-26T16:02:37.870Z,100815.22
2022-10-26T16:07:43.072Z,100822.41
2022-10-26T16:12:44.541Z,100836.56
2022-10-26T16:17:46.672Z,100845.84
2022-10-26T16:22:49.280Z,100849.50
2022-10-26T16:27:53.600Z,100847.81
2022-10-26T16:32:55.041Z,100859.22
2022-10-26T16:37:56.532Z,100870.25
2022-10-26T16:42:58.009Z,100881.75
2022-10-26T16:47:59.563Z,100881.66
2022-10-26T16:53:00.983Z,100891.69
2022-10-26T16:58:02.446Z,100899.66
2022-10-26T17:03:04.467Z,100903.66
2022-10-26T17:08:07.206Z,100911.81
2022-10-26T17:13:08.615Z,100911.63
2022-10-26T17:18:10.845Z,100915.00
2022-10-26T17:23:12.267Z,100921.94
2022-10-26T17:28:13.876Z,100928.56
2022-10-26T17:33:15.317Z,100944.59
2022-10-26T17:38:16.791Z,100956.28
2022-10-26T17:43:18.402Z,100960.97
2022-10-26T17:48:19.875Z,100970.97
2022-10-26T17:53:21.430Z,100973.53
2022-10-26T17:58:22.902Z,100979.19
2022-10-26T18:03:24.359Z,100987.31
2022-10-26T18:08:26.311Z,101000.53
2022-10-26T18:13:33.846Z,101001.81
2022-10-26T18:18:35.421Z,101003.13
2022-10-26T18:23:38.165Z,101010.28
2022-10-26T18:28:39.931Z,101020.94
2022-10-26T18:33:41.636Z,101020.44
2022-10-26T18:38:44.153Z,101022.41
2022-10-26T18:43:51.033Z,101029.59
2022-10-26T18:48:53.518Z,101040.31
2022-10-26T18:53:56.761Z,101041.56
2022-10-26T18:58:59.899Z,101033.34
2022-10-26T19:04:07.024Z,101038.88
2022-10-26T19:09:10.185Z,101050.38
2022-10-26T19:14:13.060Z,101048.31
2022-10-26T19:19:16.471Z,101043.66
2022-10-26T19:24:22.937Z,101054.25
2022-10-26T19:29:24.387Z,101057.06
2022-10-26T19:34:26.144Z,101057.28
2022-10-26T19:39:27.819Z,101056.59
2022-10-26T19:44:29.259Z,101059.38
2022-10-26T19:49:30.832Z,101064.59
2022-10-26T19:54:32.386Z,101066.59
2022-10-26T19:59:33.828Z,101069.41
2022-10-26T20:04:35.283Z,101072.13
2022-10-26T20:09:36.736Z,101064.59
2022-10-26T20:14:39.481Z,101063.16
2022-10-26T20:19:40.885Z,101059.97
2022-10-26T20:24:43.341Z,101070.69
2022-10-26T20:29:44.985Z,101083.00
2022-10-26T20:34:46.604Z,101087.56
2022-10-26T20:39:48.311Z,101084.34
2022-10-26T20:44:57.635Z,101099.97
2022-10-26T20:49:59.382Z,101099.34
2022-10-26T20:55:15.412Z,101097.03
2022-10-26T21:00:17.245Z,101096.59
2022-10-26T21:05:21.270Z,101092.59
2022-10-26T21:10:22.725Z,101099.66
2022-10-26T21:15:24.257Z,101105.88
2022-10-26T21:20:25.731Z,101102.75
2022-10-26T21:25:27.214Z,101104.59
2022-10-26T21:30:28.940Z,101104.03
2022-10-26T21:35:30.484Z,101103.44
2022-10-26T21:40:31.992Z,101112.25
2022-10-26T21:45:33.462Z,101118.38
2022-10-26T21:50:34.907Z,101110.91
2022-10-26T21:55:36.334Z,101121.31
2022-10-26T22:00:37.835Z,101110.44
2022-10-26T22:05:43.580Z,101107.94
2022-10-26T22:10:47.874Z,101107.31
2022-10-26T22:15:49.602Z,101114.22
2022-10-26T22:21:00.001Z,101119.50
2022-10-26T22:26:12.572Z,101117.13
2022-10-26T22:31:16.955Z,101118.13
2022-10-26T22:36:18.821Z,101113.91
2022-10-26T22:41:21.837Z,101111.31
2022-10-26T22:46:26.713Z,101115.56
2022-10-26T22:51:33.215Z,101109.81
2022-10-26T22:56:35.821Z,101115.09
2022-10-26T23:01:39.357Z,101123.78
2022-10-26T23:06:41.550Z,101117.06
2022-10-26T23:11:42.956Z,101118.84
2022-10-26T23:16:44.392Z,101119.00
2022-10-26T23:21:45.841Z,101121.66
2022-10-26T23:26:47.290Z,101125.13
2022-10-26T23:31:48.724Z,101139.81
2022-10-26T23:36:52.020Z,101153.03
2022-10-26T23:41:53.438Z,101151.72
2022-10-26T23:46:54.884Z,101153.81
2022-10-26T23:51:56.341Z,101148.06
2022-10-26T23:56:57.869Z,101156.69
